sensor_id;sensor_type;location;lat;lon;timestamp;temperature;humidity
74171;DHT22;62526;50.948;6.590;2023-05-23T00:00:07;16.00;99.90
74171;DHT22;62526;50.948;6.590;2023-05-23T00:02:34;16.00;99.90
74171;DHT22;62526;50.948;6.590;2023-05-23T00:05:01;16.00;99.90
74171;DHT22;62526;50.948;6.590;2023-05-23T00:07:29;16.00;99.90
74171;DHT22;62526;50.948;6.590;2023-05-23T00:09:55;16.00;99.90
74171;DHT22;62526;50.948;6.590;2023-05-23T00:12:22;16.00;99.90
74171;DHT22;62526;50.948;6.590;2023-05-23T00:14:49;16.00;99.90
74171;DHT22;62526;50.948;6.590;2023-05-23T00:17:15;16.00;99.90
74171;DHT22;62526;50.948;6.590;2023-05-23T00:19:42;15.90;99.90
74171;DHT22;62526;50.948;6.590;2023-05-23T00:22:08;15.90;99.90
74171;DHT22;62526;50.948;6.590;2023-05-23T00:24:35;15.90;99.90
74171;DHT22;62526;50.948;6.590;2023-05-23T00:27:02;15.90;99.90
74171;DHT22;62526;50.948;6.590;2023-05-23T00:29:28;15.90;99.90
74171;DHT22;62526;50.948;6.590;2023-05-23T00:31:55;15.80;99.90
74171;DHT22;62526;50.948;6.590;2023-05-23T00:34:22;15.80;99.90
74171;DHT22;62526;50.948;6.590;2023-05-23T00:36:48;15.80;99.90
74171;DHT22;62526;50.948;6.590;2023-05-23T00:39:15;15.70;99.90
74171;DHT22;62526;50.948;6.590;2023-05-23T00:41:46;15.50;99.90
74171;DHT22;62526;50.948;6.590;2023-05-23T00:44:13;15.20;99.90
74171;DHT22;62526;50.948;6.590;2023-05-23T00:46:40;15.20;99.90
74171;DHT22;62526;50.948;6.590;2023-05-23T00:49:06;15.30;99.90
74171;DHT22;62526;50.948;6.590;2023-05-23T00:51:33;15.30;99.90
74171;DHT22;62526;50.948;6.590;2023-05-23T00:53:59;15.20;99.90
74171;DHT22;62526;50.948;6.590;2023-05-23T00:56:26;15.20;99.90
74171;DHT22;62526;50.948;6.590;2023-05-23T00:58:53;15.30;99.90
74171;DHT22;62526;50.948;6.590;2023-05-23T01:01:19;15.40;99.90
74171;DHT22;62526;50.948;6.590;2023-05-23T01:03:46;15.50;99.90
74171;DHT22;62526;50.948;6.590;2023-05-23T01:06:13;15.60;99.90
74171;DHT22;62526;50.948;6.590;2023-05-23T01:08:39;15.70;99.90
74171;DHT22;62526;50.948;6.590;2023-05-23T01:11:07;15.70;99.90
74171;DHT22;62526;50.948;6.590;2023-05-23T01:13:35;15.80;99.90
74171;DHT22;62526;50.948;6.590;2023-05-23T01:16:02;15.90;99.90
74171;DHT22;62526;50.948;6.590;2023-05-23T01:18:36;15.90;99.90
74171;DHT22;62526;50.948;6.590;2023-05-23T01:21:05;16.00;99.90
74171;DHT22;62526;50.948;6.590;2023-05-23T01:26:17;16.10;99.90
74171;DHT22;62526;50.948;6.590;2023-05-23T01:28:44;16.10;99.90
74171;DHT22;62526;50.948;6.590;2023-05-23T01:31:09;16.10;99.90
74171;DHT22;62526;50.948;6.590;2023-05-23T01:33:36;16.10;99.90
74171;DHT22;62526;50.948;6.590;2023-05-23T01:36:02;16.10;99.90
74171;DHT22;62526;50.948;6.590;2023-05-23T01:38:29;16.10;99.90
74171;DHT22;62526;50.948;6.590;2023-05-23T01:40:56;16.00;99.90
74171;DHT22;62526;50.948;6.590;2023-05-23T01:43:23;16.00;99.90
74171;DHT22;62526;50.948;6.590;2023-05-23T01:45:49;16.00;99.90
74171;DHT22;62526;50.948;6.590;2023-05-23T01:48:16;16.00;99.90
74171;DHT22;62526;50.948;6.590;2023-05-23T01:50:43;16.00;99.90
74171;DHT22;62526;50.948;6.590;2023-05-23T01:53:10;16.00;99.90
74171;DHT22;62526;50.948;6.590;2023-05-23T01:55:37;15.90;99.90
74171;DHT22;62526;50.948;6.590;2023-05-23T01:58:03;16.00;99.90
74171;DHT22;62526;50.948;6.590;2023-05-23T02:00:30;16.00;99.90
74171;DHT22;62526;50.948;6.590;2023-05-23T02:02:57;16.00;99.90
74171;DHT22;62526;50.948;6.590;2023-05-23T02:05:23;16.00;99.90
74171;DHT22;62526;50.948;6.590;2023-05-23T02:07:50;16.00;99.90
74171;DHT22;62526;50.948;6.590;2023-05-23T02:10:17;16.00;99.90
74171;DHT22;62526;50.948;6.590;2023-05-23T02:12:44;15.90;99.90
74171;DHT22;62526;50.948;6.590;2023-05-23T02:15:10;16.00;99.90
74171;DHT22;62526;50.948;6.590;2023-05-23T02:17:37;16.00;99.90
74171;DHT22;62526;50.948;6.590;2023-05-23T02:20:05;16.00;99.90
74171;DHT22;62526;50.948;6.590;2023-05-23T02:22:32;16.00;99.90
74171;DHT22;62526;50.948;6.590;2023-05-23T02:24:58;16.00;99.90
74171;DHT22;62526;50.948;6.590;2023-05-23T02:27:25;16.00;99.90
74171;DHT22;62526;50.948;6.590;2023-05-23T02:29:51;15.90;99.90
74171;DHT22;62526;50.948;6.590;2023-05-23T02:32:18;15.90;99.90
74171;DHT22;62526;50.948;6.590;2023-05-23T02:34:45;15.90;99.90
74171;DHT22;62526;50.948;6.590;2023-05-23T02:37:12;16.00;99.90
74171;DHT22;62526;50.948;6.590;2023-05-23T02:39:39;16.00;99.90
74171;DHT22;62526;50.948;6.590;2023-05-23T02:42:05;15.90;99.90
74171;DHT22;62526;50.948;6.590;2023-05-23T02:44:32;15.90;99.90
74171;DHT22;62526;50.948;6.590;2023-05-23T02:46:59;15.90;99.90
74171;DHT22;62526;50.948;6.590;2023-05-23T02:49:25;15.90;99.90
74171;DHT22;62526;50.948;6.590;2023-05-23T02:51:52;15.90;99.90
74171;DHT22;62526;50.948;6.590;2023-05-23T02:54:18;15.90;99.90
74171;DHT22;62526;50.948;6.590;2023-05-23T02:56:45;15.90;99.90
74171;DHT22;62526;50.948;6.590;2023-05-23T02:59:12;15.90;99.90
74171;DHT22;62526;50.948;6.590;2023-05-23T03:01:38;15.90;99.90
74171;DHT22;62526;50.948;6.590;2023-05-23T03:04:05;15.80;99.90
74171;DHT22;62526;50.948;6.590;2023-05-23T03:06:32;15.80;99.90
74171;DHT22;62526;50.948;6.590;2023-05-23T03:08:59;15.80;99.90
74171;DHT22;62526;50.948;6.590;2023-05-23T03:11:25;15.80;99.90
74171;DHT22;62526;50.948;6.590;2023-05-23T03:13:52;15.90;99.90
74171;DHT22;62526;50.948;6.590;2023-05-23T03:16:19;15.80;99.90
74171;DHT22;62526;50.948;6.590;2023-05-23T03:18:45;15.80;99.90
74171;DHT22;62526;50.948;6.590;2023-05-23T03:21:12;15.80;99.90
74171;DHT22;62526;50.948;6.590;2023-05-23T03:23:38;15.80;99.90
74171;DHT22;62526;50.948;6.590;2023-05-23T03:26:05;15.80;99.90
74171;DHT22;62526;50.948;6.590;2023-05-23T03:28:32;15.80;99.90
74171;DHT22;62526;50.948;6.590;2023-05-23T03:30:58;15.70;99.90
74171;DHT22;62526;50.948;6.590;2023-05-23T03:33:25;15.70;99.90
74171;DHT22;62526;50.948;6.590;2023-05-23T03:35:51;15.60;99.90
74171;DHT22;62526;50.948;6.590;2023-05-23T03:38:19;15.60;99.90
74171;DHT22;62526;50.948;6.590;2023-05-23T03:40:45;15.70;99.90
74171;DHT22;62526;50.948;6.590;2023-05-23T03:43:11;15.60;99.90
74171;DHT22;62526;50.948;6.590;2023-05-23T03:45:38;15.60;99.90
74171;DHT22;62526;50.948;6.590;2023-05-23T03:48:04;15.60;99.90
74171;DHT22;62526;50.948;6.590;2023-05-23T03:50:31;15.60;99.90
74171;DHT22;62526;50.948;6.590;2023-05-23T03:52:58;15.50;99.90
74171;DHT22;62526;50.948;6.590;2023-05-23T03:55:25;15.50;99.90
74171;DHT22;62526;50.948;6.590;2023-05-23T03:57:52;15.50;99.90
74171;DHT22;62526;50.948;6.590;2023-05-23T04:00:18;15.50;99.90
74171;DHT22;62526;50.948;6.590;2023-05-23T04:02:45;15.40;99.90
74171;DHT22;62526;50.948;6.590;2023-05-23T04:05:12;15.40;99.90
74171;DHT22;62526;50.948;6.590;2023-05-23T04:07:38;15.30;99.90
74171;DHT22;62526;50.948;6.590;2023-05-23T04:10:06;15.30;99.90
74171;DHT22;62526;50.948;6.590;2023-05-23T04:12:33;15.20;99.90
74171;DHT22;62526;50.948;6.590;2023-05-23T04:14:59;15.30;99.90
74171;DHT22;62526;50.948;6.590;2023-05-23T04:17:26;15.30;99.90
74171;DHT22;62526;50.948;6.590;2023-05-23T04:19:53;15.20;99.90
74171;DHT22;62526;50.948;6.590;2023-05-23T04:22:19;15.30;99.90
74171;DHT22;62526;50.948;6.590;2023-05-23T04:24:46;15.20;99.90
74171;DHT22;62526;50.948;6.590;2023-05-23T04:27:12;15.30;99.90
74171;DHT22;62526;50.948;6.590;2023-05-23T04:29:39;15.30;99.90
74171;DHT22;62526;50.948;6.590;2023-05-23T04:32:06;15.30;99.90
74171;DHT22;62526;50.948;6.590;2023-05-23T04:34:32;15.40;99.90
74171;DHT22;62526;50.948;6.590;2023-05-23T04:36:59;15.40;99.90
74171;DHT22;62526;50.948;6.590;2023-05-23T04:39:28;15.40;99.90
74171;DHT22;62526;50.948;6.590;2023-05-23T04:41:55;15.40;99.90
74171;DHT22;62526;50.948;6.590;2023-05-23T04:44:22;15.50;99.90
74171;DHT22;62526;50.948;6.590;2023-05-23T04:46:49;15.50;99.90
74171;DHT22;62526;50.948;6.590;2023-05-23T04:49:15;15.50;99.90
74171;DHT22;62526;50.948;6.590;2023-05-23T04:51:42;15.60;99.90
74171;DHT22;62526;50.948;6.590;2023-05-23T04:54:09;15.50;99.90
74171;DHT22;62526;50.948;6.590;2023-05-23T04:56:35;15.50;99.90
74171;DHT22;62526;50.948;6.590;2023-05-23T04:59:03;15.50;99.90
74171;DHT22;62526;50.948;6.590;2023-05-23T05:01:29;15.40;99.90
74171;DHT22;62526;50.948;6.590;2023-05-23T05:03:56;15.50;99.90
74171;DHT22;62526;50.948;6.590;2023-05-23T05:06:22;15.40;99.90
74171;DHT22;62526;50.948;6.590;2023-05-23T05:08:49;15.40;99.90
74171;DHT22;62526;50.948;6.590;2023-05-23T05:11:16;15.40;99.90
74171;DHT22;62526;50.948;6.590;2023-05-23T05:13:42;15.40;99.90
74171;DHT22;62526;50.948;6.590;2023-05-23T05:16:09;15.40;99.90
74171;DHT22;62526;50.948;6.590;2023-05-23T05:18:35;15.40;99.90
74171;DHT22;62526;50.948;6.590;2023-05-23T05:21:02;15.40;99.90
74171;DHT22;62526;50.948;6.590;2023-05-23T05:23:30;15.40;99.90
74171;DHT22;62526;50.948;6.590;2023-05-23T05:25:56;15.40;99.90
74171;DHT22;62526;50.948;6.590;2023-05-23T05:28:23;15.50;99.90
74171;DHT22;62526;50.948;6.590;2023-05-23T05:30:50;15.50;99.90
74171;DHT22;62526;50.948;6.590;2023-05-23T05:33:21;15.50;99.90
74171;DHT22;62526;50.948;6.590;2023-05-23T05:35:49;15.50;99.90
74171;DHT22;62526;50.948;6.590;2023-05-23T05:38:16;15.40;99.90
74171;DHT22;62526;50.948;6.590;2023-05-23T05:40:43;15.40;99.90
74171;DHT22;62526;50.948;6.590;2023-05-23T05:43:09;15.40;99.90
74171;DHT22;62526;50.948;6.590;2023-05-23T05:45:36;15.50;99.90
74171;DHT22;62526;50.948;6.590;2023-05-23T05:48:02;15.50;99.90
74171;DHT22;62526;50.948;6.590;2023-05-23T05:50:29;15.40;99.90
74171;DHT22;62526;50.948;6.590;2023-05-23T05:52:56;15.50;99.90
74171;DHT22;62526;50.948;6.590;2023-05-23T05:55:22;15.60;99.90
74171;DHT22;62526;50.948;6.590;2023-05-23T05:57:49;15.60;99.90
74171;DHT22;62526;50.948;6.590;2023-05-23T06:00:16;15.60;99.90
74171;DHT22;62526;50.948;6.590;2023-05-23T06:02:43;15.50;99.90
74171;DHT22;62526;50.948;6.590;2023-05-23T06:05:10;15.50;99.90
74171;DHT22;62526;50.948;6.590;2023-05-23T06:07:38;15.50;99.90
74171;DHT22;62526;50.948;6.590;2023-05-23T06:10:05;15.50;99.90
74171;DHT22;62526;50.948;6.590;2023-05-23T06:12:32;15.60;99.90
74171;DHT22;62526;50.948;6.590;2023-05-23T06:14:58;15.60;99.90
74171;DHT22;62526;50.948;6.590;2023-05-23T06:17:25;15.60;99.90
74171;DHT22;62526;50.948;6.590;2023-05-23T06:19:52;15.70;99.90
74171;DHT22;62526;50.948;6.590;2023-05-23T06:22:18;15.70;99.90
74171;DHT22;62526;50.948;6.590;2023-05-23T06:24:45;15.70;99.90
74171;DHT22;62526;50.948;6.590;2023-05-23T06:27:11;15.60;99.90
74171;DHT22;62526;50.948;6.590;2023-05-23T06:29:38;15.70;99.90
74171;DHT22;62526;50.948;6.590;2023-05-23T06:32:05;15.70;99.90
74171;DHT22;62526;50.948;6.590;2023-05-23T06:34:32;15.70;99.90
74171;DHT22;62526;50.948;6.590;2023-05-23T06:36:58;15.70;99.90
74171;DHT22;62526;50.948;6.590;2023-05-23T06:39:25;15.70;99.90
74171;DHT22;62526;50.948;6.590;2023-05-23T06:41:52;15.60;99.90
74171;DHT22;62526;50.948;6.590;2023-05-23T06:44:18;15.50;99.90
74171;DHT22;62526;50.948;6.590;2023-05-23T06:46:45;15.50;99.90
74171;DHT22;62526;50.948;6.590;2023-05-23T06:49:11;15.40;99.90
74171;DHT22;62526;50.948;6.590;2023-05-23T06:51:38;15.50;99.90
74171;DHT22;62526;50.948;6.590;2023-05-23T06:54:05;15.50;99.90
74171;DHT22;62526;50.948;6.590;2023-05-23T06:56:31;15.60;99.90
74171;DHT22;62526;50.948;6.590;2023-05-23T06:58:58;15.60;99.90
74171;DHT22;62526;50.948;6.590;2023-05-23T07:01:25;15.60;99.90
74171;DHT22;62526;50.948;6.590;2023-05-23T07:03:51;15.60;99.90
74171;DHT22;62526;50.948;6.590;2023-05-23T07:06:17;15.70;99.90
74171;DHT22;62526;50.948;6.590;2023-05-23T07:08:44;15.70;99.90
74171;DHT22;62526;50.948;6.590;2023-05-23T07:11:11;15.70;99.90
74171;DHT22;62526;50.948;6.590;2023-05-23T07:13:37;15.80;99.90
74171;DHT22;62526;50.948;6.590;2023-05-23T07:16:05;15.70;99.90
74171;DHT22;62526;50.948;6.590;2023-05-23T07:18:32;15.70;99.90
74171;DHT22;62526;50.948;6.590;2023-05-23T07:20:59;15.70;99.90
74171;DHT22;62526;50.948;6.590;2023-05-23T07:23:25;15.70;99.90
74171;DHT22;62526;50.948;6.590;2023-05-23T07:25:52;15.70;99.90
74171;DHT22;62526;50.948;6.590;2023-05-23T07:28:19;15.70;99.90
74171;DHT22;62526;50.948;6.590;2023-05-23T07:30:45;15.60;99.90
74171;DHT22;62526;50.948;6.590;2023-05-23T07:33:12;15.60;99.90
74171;DHT22;62526;50.948;6.590;2023-05-23T07:35:38;15.50;99.90
74171;DHT22;62526;50.948;6.590;2023-05-23T07:38:05;15.50;99.90
74171;DHT22;62526;50.948;6.590;2023-05-23T07:40:32;15.50;99.90
74171;DHT22;62526;50.948;6.590;2023-05-23T07:42:58;15.50;99.90
74171;DHT22;62526;50.948;6.590;2023-05-23T07:45:26;15.50;99.90
74171;DHT22;62526;50.948;6.590;2023-05-23T07:47:52;15.50;99.90
74171;DHT22;62526;50.948;6.590;2023-05-23T07:50:19;15.50;99.90
74171;DHT22;62526;50.948;6.590;2023-05-23T07:52:45;15.50;99.90
74171;DHT22;62526;50.948;6.590;2023-05-23T07:55:12;15.40;99.90
74171;DHT22;62526;50.948;6.590;2023-05-23T07:57:39;15.40;99.90
74171;DHT22;62526;50.948;6.590;2023-05-23T08:00:06;15.40;99.90
74171;DHT22;62526;50.948;6.590;2023-05-23T08:02:33;15.30;99.90
74171;DHT22;62526;50.948;6.590;2023-05-23T08:04:59;15.40;99.90
74171;DHT22;62526;50.948;6.590;2023-05-23T08:07:26;15.30;99.90
74171;DHT22;62526;50.948;6.590;2023-05-23T08:09:53;15.30;99.90
74171;DHT22;62526;50.948;6.590;2023-05-23T08:12:19;15.20;99.90
74171;DHT22;62526;50.948;6.590;2023-05-23T08:14:46;15.10;99.90
74171;DHT22;62526;50.948;6.590;2023-05-23T08:17:12;15.10;99.90
74171;DHT22;62526;50.948;6.590;2023-05-23T08:19:39;15.10;99.90
74171;DHT22;62526;50.948;6.590;2023-05-23T08:22:06;15.10;99.90
74171;DHT22;62526;50.948;6.590;2023-05-23T08:24:32;15.10;99.90
74171;DHT22;62526;50.948;6.590;2023-05-23T08:26:59;15.20;99.90
74171;DHT22;62526;50.948;6.590;2023-05-23T08:29:27;15.20;99.90
74171;DHT22;62526;50.948;6.590;2023-05-23T08:31:53;15.10;99.90
74171;DHT22;62526;50.948;6.590;2023-05-23T08:34:20;15.20;99.90
74171;DHT22;62526;50.948;6.590;2023-05-23T08:36:47;15.20;99.90
74171;DHT22;62526;50.948;6.590;2023-05-23T08:39:13;15.20;99.90
74171;DHT22;62526;50.948;6.590;2023-05-23T08:41:40;15.00;99.90
74171;DHT22;62526;50.948;6.590;2023-05-23T08:44:06;15.00;99.90
74171;DHT22;62526;50.948;6.590;2023-05-23T08:46:33;15.00;99.90
74171;DHT22;62526;50.948;6.590;2023-05-23T08:49:00;15.00;99.90
74171;DHT22;62526;50.948;6.590;2023-05-23T08:51:27;15.00;99.90
74171;DHT22;62526;50.948;6.590;2023-05-23T08:53:53;15.00;99.90
74171;DHT22;62526;50.948;6.590;2023-05-23T08:56:20;15.00;99.90
74171;DHT22;62526;50.948;6.590;2023-05-23T08:58:48;15.00;99.90
74171;DHT22;62526;50.948;6.590;2023-05-23T09:01:14;14.90;99.90
74171;DHT22;62526;50.948;6.590;2023-05-23T09:03:41;14.90;99.90
74171;DHT22;62526;50.948;6.590;2023-05-23T09:06:08;14.90;99.90
74171;DHT22;62526;50.948;6.590;2023-05-23T09:08:34;14.90;99.90
74171;DHT22;62526;50.948;6.590;2023-05-23T09:11:01;14.90;99.90
74171;DHT22;62526;50.948;6.590;2023-05-23T09:13:30;14.70;99.90
74171;DHT22;62526;50.948;6.590;2023-05-23T09:15:56;14.80;99.90
74171;DHT22;62526;50.948;6.590;2023-05-23T09:18:23;14.70;99.90
74171;DHT22;62526;50.948;6.590;2023-05-23T09:20:49;14.70;99.90
74171;DHT22;62526;50.948;6.590;2023-05-23T09:23:15;14.60;99.90
74171;DHT22;62526;50.948;6.590;2023-05-23T09:25:45;14.40;99.90
74171;DHT22;62526;50.948;6.590;2023-05-23T09:28:12;14.30;99.90
74171;DHT22;62526;50.948;6.590;2023-05-23T09:30:38;14.40;99.90
74171;DHT22;62526;50.948;6.590;2023-05-23T09:33:06;14.40;99.90
74171;DHT22;62526;50.948;6.590;2023-05-23T09:35:32;14.50;99.90
74171;DHT22;62526;50.948;6.590;2023-05-23T09:37:58;14.60;99.90
74171;DHT22;62526;50.948;6.590;2023-05-23T09:40:28;14.70;99.90
74171;DHT22;62526;50.948;6.590;2023-05-23T09:42:54;14.80;99.90
74171;DHT22;62526;50.948;6.590;2023-05-23T09:45:27;14.90;99.90
74171;DHT22;62526;50.948;6.590;2023-05-23T09:47:49;15.10;99.90
74171;DHT22;62526;50.948;6.590;2023-05-23T09:50:16;15.50;99.90
74171;DHT22;62526;50.948;6.590;2023-05-23T09:52:42;15.40;99.90
74171;DHT22;62526;50.948;6.590;2023-05-23T09:55:09;15.50;99.90
74171;DHT22;62526;50.948;6.590;2023-05-23T09:57:36;15.50;99.90
74171;DHT22;62526;50.948;6.590;2023-05-23T10:00:03;15.50;99.90
74171;DHT22;62526;50.948;6.590;2023-05-23T10:03:06;15.60;99.90
74171;DHT22;62526;50.948;6.590;2023-05-23T10:05:32;15.90;99.90
74171;DHT22;62526;50.948;6.590;2023-05-23T10:07:59;16.10;99.90
74171;DHT22;62526;50.948;6.590;2023-05-23T10:10:25;16.10;99.90
74171;DHT22;62526;50.948;6.590;2023-05-23T10:12:53;16.20;99.90
74171;DHT22;62526;50.948;6.590;2023-05-23T10:15:18;16.20;99.90
74171;DHT22;62526;50.948;6.590;2023-05-23T10:17:51;16.20;99.90
74171;DHT22;62526;50.948;6.590;2023-05-23T10:20:13;16.20;99.90
74171;DHT22;62526;50.948;6.590;2023-05-23T10:22:39;16.20;99.90
74171;DHT22;62526;50.948;6.590;2023-05-23T10:25:05;16.30;99.90
74171;DHT22;62526;50.948;6.590;2023-05-23T10:27:32;16.40;99.90
74171;DHT22;62526;50.948;6.590;2023-05-23T10:29:59;16.40;99.90
74171;DHT22;62526;50.948;6.590;2023-05-23T10:32:26;16.50;99.90
74171;DHT22;62526;50.948;6.590;2023-05-23T10:34:55;16.60;99.90
74171;DHT22;62526;50.948;6.590;2023-05-23T10:37:22;16.80;99.90
74171;DHT22;62526;50.948;6.590;2023-05-23T10:39:58;17.10;99.90
74171;DHT22;62526;50.948;6.590;2023-05-23T10:43:01;17.30;99.90
74171;DHT22;62526;50.948;6.590;2023-05-23T10:45:17;17.30;99.90
74171;DHT22;62526;50.948;6.590;2023-05-23T10:47:43;17.40;99.90
74171;DHT22;62526;50.948;6.590;2023-05-23T10:50:12;17.40;99.90
74171;DHT22;62526;50.948;6.590;2023-05-23T10:52:38;17.70;99.90
74171;DHT22;62526;50.948;6.590;2023-05-23T10:55:11;17.90;99.90
74171;DHT22;62526;50.948;6.590;2023-05-23T10:57:31;18.20;99.90
74171;DHT22;62526;50.948;6.590;2023-05-23T10:59:58;18.20;99.90
74171;DHT22;62526;50.948;6.590;2023-05-23T11:02:26;18.40;99.90
74171;DHT22;62526;50.948;6.590;2023-05-23T11:05:33;18.60;99.90
74171;DHT22;62526;50.948;6.590;2023-05-23T11:07:42;18.60;99.90
74171;DHT22;62526;50.948;6.590;2023-05-23T11:10:09;18.70;99.90
74171;DHT22;62526;50.948;6.590;2023-05-23T11:12:39;19.00;99.90
74171;DHT22;62526;50.948;6.590;2023-05-23T11:15:18;19.40;99.90
74171;DHT22;62526;50.948;6.590;2023-05-23T11:17:49;19.70;99.90
74171;DHT22;62526;50.948;6.590;2023-05-23T11:20:15;20.10;99.90
74171;DHT22;62526;50.948;6.590;2023-05-23T11:22:47;20.50;99.90
74171;DHT22;62526;50.948;6.590;2023-05-23T11:25:08;21.00;99.90
74171;DHT22;62526;50.948;6.590;2023-05-23T11:27:36;21.60;99.90
74171;DHT22;62526;50.948;6.590;2023-05-23T11:30:08;21.60;99.90
74171;DHT22;62526;50.948;6.590;2023-05-23T11:35:19;21.30;99.90
74171;DHT22;62526;50.948;6.590;2023-05-23T11:37:46;20.60;99.90
74171;DHT22;62526;50.948;6.590;2023-05-23T11:40:25;20.20;99.90
74171;DHT22;62526;50.948;6.590;2023-05-23T11:42:52;19.90;99.90
74171;DHT22;62526;50.948;6.590;2023-05-23T11:45:19;19.50;99.90
74171;DHT22;62526;50.948;6.590;2023-05-23T11:47:45;19.20;99.90
74171;DHT22;62526;50.948;6.590;2023-05-23T11:50:12;18.90;99.90
74171;DHT22;62526;50.948;6.590;2023-05-23T11:52:38;18.80;99.90
74171;DHT22;62526;50.948;6.590;2023-05-23T11:55:06;18.80;99.90
74171;DHT22;62526;50.948;6.590;2023-05-23T11:57:36;18.90;99.90
74171;DHT22;62526;50.948;6.590;2023-05-23T12:00:00;19.30;99.90
74171;DHT22;62526;50.948;6.590;2023-05-23T12:02:27;19.60;99.90
74171;DHT22;62526;50.948;6.590;2023-05-23T12:04:53;19.90;99.90
74171;DHT22;62526;50.948;6.590;2023-05-23T12:07:19;20.10;99.90
74171;DHT22;62526;50.948;6.590;2023-05-23T12:09:46;20.40;99.90
74171;DHT22;62526;50.948;6.590;2023-05-23T12:12:13;20.40;99.90
74171;DHT22;62526;50.948;6.590;2023-05-23T12:14:40;20.30;99.90
74171;DHT22;62526;50.948;6.590;2023-05-23T12:17:11;20.30;99.90
74171;DHT22;62526;50.948;6.590;2023-05-23T12:19:37;20.10;99.90
74171;DHT22;62526;50.948;6.590;2023-05-23T12:22:05;19.90;99.90
74171;DHT22;62526;50.948;6.590;2023-05-23T12:24:31;19.80;99.90
74171;DHT22;62526;50.948;6.590;2023-05-23T12:26:58;20.00;99.90
74171;DHT22;62526;50.948;6.590;2023-05-23T12:29:29;20.40;99.90
74171;DHT22;62526;50.948;6.590;2023-05-23T12:31:57;20.70;99.90
74171;DHT22;62526;50.948;6.590;2023-05-23T12:34:22;20.90;99.90
74171;DHT22;62526;50.948;6.590;2023-05-23T12:36:48;21.00;99.90
74171;DHT22;62526;50.948;6.590;2023-05-23T12:39:15;21.00;99.90
74171;DHT22;62526;50.948;6.590;2023-05-23T12:41:42;21.10;99.90
74171;DHT22;62526;50.948;6.590;2023-05-23T12:44:08;21.20;99.90
74171;DHT22;62526;50.948;6.590;2023-05-23T12:46:35;21.30;99.90
74171;DHT22;62526;50.948;6.590;2023-05-23T12:49:01;21.50;99.90
74171;DHT22;62526;50.948;6.590;2023-05-23T12:51:28;21.70;97.10
74171;DHT22;62526;50.948;6.590;2023-05-23T12:53:55;21.60;99.40
74171;DHT22;62526;50.948;6.590;2023-05-23T12:56:21;21.50;98.90
74171;DHT22;62526;50.948;6.590;2023-05-23T12:58:48;21.80;98.50
74171;DHT22;62526;50.948;6.590;2023-05-23T13:01:14;22.60;96.90
74171;DHT22;62526;50.948;6.590;2023-05-23T13:03:41;23.30;91.00
74171;DHT22;62526;50.948;6.590;2023-05-23T13:06:08;23.50;88.50
74171;DHT22;62526;50.948;6.590;2023-05-23T13:08:34;23.80;81.70
74171;DHT22;62526;50.948;6.590;2023-05-23T13:11:01;23.90;77.50
74171;DHT22;62526;50.948;6.590;2023-05-23T13:13:27;23.70;76.50
74171;DHT22;62526;50.948;6.590;2023-05-23T13:15:54;24.00;76.80
74171;DHT22;62526;50.948;6.590;2023-05-23T13:18:21;24.50;74.10
74171;DHT22;62526;50.948;6.590;2023-05-23T13:20:47;24.90;64.90
74171;DHT22;62526;50.948;6.590;2023-05-23T13:23:14;25.20;60.10
74171;DHT22;62526;50.948;6.590;2023-05-23T13:25:40;25.00;59.60
74171;DHT22;62526;50.948;6.590;2023-05-23T13:28:07;24.50;58.30
74171;DHT22;62526;50.948;6.590;2023-05-23T13:30:34;23.60;61.60
74171;DHT22;62526;50.948;6.590;2023-05-23T13:33:00;23.20;63.10
74171;DHT22;62526;50.948;6.590;2023-05-23T13:35:27;23.10;63.90
74171;DHT22;62526;50.948;6.590;2023-05-23T13:37:53;23.10;65.80
74171;DHT22;62526;50.948;6.590;2023-05-23T13:40:20;23.30;67.10
74171;DHT22;62526;50.948;6.590;2023-05-23T13:42:47;23.10;63.10
74171;DHT22;62526;50.948;6.590;2023-05-23T13:45:13;22.80;62.70
74171;DHT22;62526;50.948;6.590;2023-05-23T13:47:40;22.50;65.80
74171;DHT22;62526;50.948;6.590;2023-05-23T13:50:08;22.40;66.10
74171;DHT22;62526;50.948;6.590;2023-05-23T13:52:35;22.70;63.40
74171;DHT22;62526;50.948;6.590;2023-05-23T13:55:02;22.70;63.30
74171;DHT22;62526;50.948;6.590;2023-05-23T13:57:29;22.50;63.80
74171;DHT22;62526;50.948;6.590;2023-05-23T13:59:55;22.20;66.30
74171;DHT22;62526;50.948;6.590;2023-05-23T14:02:22;22.00;67.10
74171;DHT22;62526;50.948;6.590;2023-05-23T14:04:48;22.10;67.50
74171;DHT22;62526;50.948;6.590;2023-05-23T14:07:18;22.90;64.00
74171;DHT22;62526;50.948;6.590;2023-05-23T14:09:44;23.90;61.50
74171;DHT22;62526;50.948;6.590;2023-05-23T14:12:11;24.60;57.50
74171;DHT22;62526;50.948;6.590;2023-05-23T14:14:38;25.00;57.50
74171;DHT22;62526;50.948;6.590;2023-05-23T14:17:04;25.80;52.80
74171;DHT22;62526;50.948;6.590;2023-05-23T14:19:31;26.50;51.40
74171;DHT22;62526;50.948;6.590;2023-05-23T14:21:57;26.70;48.10
74171;DHT22;62526;50.948;6.590;2023-05-23T14:24:24;26.60;48.10
74171;DHT22;62526;50.948;6.590;2023-05-23T14:26:51;26.40;48.30
74171;DHT22;62526;50.948;6.590;2023-05-23T14:29:17;25.90;48.50
74171;DHT22;62526;50.948;6.590;2023-05-23T14:31:44;25.70;49.90
74171;DHT22;62526;50.948;6.590;2023-05-23T14:34:11;25.90;49.10
74171;DHT22;62526;50.948;6.590;2023-05-23T14:36:37;25.60;47.90
74171;DHT22;62526;50.948;6.590;2023-05-23T14:39:04;24.90;48.80
74171;DHT22;62526;50.948;6.590;2023-05-23T14:41:31;24.20;50.20
74171;DHT22;62526;50.948;6.590;2023-05-23T14:43:58;24.30;51.70
74171;DHT22;62526;50.948;6.590;2023-05-23T14:46:24;24.50;51.00
74171;DHT22;62526;50.948;6.590;2023-05-23T14:48:51;25.00;51.00
74171;DHT22;62526;50.948;6.590;2023-05-23T14:51:17;25.20;47.80
74171;DHT22;62526;50.948;6.590;2023-05-23T14:53:44;25.20;49.10
74171;DHT22;62526;50.948;6.590;2023-05-23T14:56:11;25.40;48.60
74171;DHT22;62526;50.948;6.590;2023-05-23T14:58:37;25.80;48.00
74171;DHT22;62526;50.948;6.590;2023-05-23T15:01:04;26.30;47.70
74171;DHT22;62526;50.948;6.590;2023-05-23T15:03:30;26.10;47.00
74171;DHT22;62526;50.948;6.590;2023-05-23T15:05:58;25.60;49.00
74171;DHT22;62526;50.948;6.590;2023-05-23T15:08:24;25.70;48.00
74171;DHT22;62526;50.948;6.590;2023-05-23T15:10:50;25.40;47.80
74171;DHT22;62526;50.948;6.590;2023-05-23T15:13:17;25.20;47.30
74171;DHT22;62526;50.948;6.590;2023-05-23T15:15:43;25.30;47.00
74171;DHT22;62526;50.948;6.590;2023-05-23T15:18:10;25.20;46.70
74171;DHT22;62526;50.948;6.590;2023-05-23T15:20:37;24.60;49.00
74171;DHT22;62526;50.948;6.590;2023-05-23T15:23:03;24.70;48.50
74171;DHT22;62526;50.948;6.590;2023-05-23T15:25:30;25.00;48.30
74171;DHT22;62526;50.948;6.590;2023-05-23T15:27:57;24.80;48.40
74171;DHT22;62526;50.948;6.590;2023-05-23T15:30:23;24.20;47.80
74171;DHT22;62526;50.948;6.590;2023-05-23T15:32:50;23.40;49.60